createdAt,value
2023-02-13T00:00:46.189Z,1.67
2023-02-13T00:03:13.793Z,1.57
2023-02-13T00:05:40.895Z,1.73
2023-02-13T00:08:08.080Z,2.27
2023-02-13T00:10:35.368Z,1.77
2023-02-13T00:13:02.544Z,1.90
2023-02-13T00:15:29.700Z,1.57
2023-02-13T00:17:56.817Z,1.47
2023-02-13T00:20:24.646Z,1.87
2023-02-13T00:22:51.745Z,1.70
2023-02-13T00:25:18.864Z,1.73
2023-02-13T00:27:46.223Z,1.77
2023-02-13T00:30:14.084Z,1.80
2023-02-13T00:32:41.203Z,1.80
2023-02-13T00:35:08.370Z,1.67
2023-02-13T00:37:35.996Z,1.43
2023-02-13T00:40:03.522Z,1.80
2023-02-13T00:42:31.337Z,1.77
2023-02-13T00:45:01.227Z,1.67
2023-02-13T00:47:29.517Z,1.70
2023-02-13T00:49:56.684Z,1.70
2023-02-13T00:52:23.768Z,1.70
2023-02-13T00:54:50.830Z,1.60
2023-02-13T00:57:17.977Z,2.00
2023-02-13T00:59:45.156Z,1.80
2023-02-13T01:02:12.238Z,2.07
2023-02-13T01:04:39.319Z,2.30
2023-02-13T01:07:06.649Z,2.00
2023-02-13T01:09:33.914Z,1.87
2023-02-13T01:12:01.144Z,1.80
2023-02-13T01:14:28.257Z,2.00
2023-02-13T01:16:55.887Z,1.80
2023-02-13T01:19:23.037Z,1.90
2023-02-13T01:21:50.258Z,2.40
2023-02-13T01:24:17.395Z,1.97
2023-02-13T01:26:44.795Z,1.80
2023-02-13T01:29:15.123Z,2.40
2023-02-13T01:31:42.428Z,2.20
2023-02-13T01:34:09.538Z,2.43
2023-02-13T01:36:37.169Z,1.93
2023-02-13T01:39:04.464Z,2.50
2023-02-13T01:41:31.553Z,2.07
2023-02-13T01:44:01.671Z,2.10
2023-02-13T01:46:55.362Z,2.60
2023-02-13T01:49:26.034Z,2.73
2023-02-13T01:51:55.718Z,2.30
2023-02-13T01:54:33.421Z,2.73
2023-02-13T01:57:16.255Z,2.80
2023-02-13T02:00:26.135Z,2.88
2023-02-13T02:03:01.701Z,2.80
2023-02-13T02:05:32.043Z,3.37
2023-02-13T02:08:02.501Z,3.90
2023-02-13T02:10:30.158Z,2.90
2023-02-13T02:13:15.819Z,3.77
2023-02-13T02:15:43.353Z,3.80
2023-02-13T02:18:16.472Z,3.53
2023-02-13T02:21:32.260Z,3.57
2023-02-13T02:24:22.015Z,2.87
2023-02-13T02:27:10.229Z,3.17
2023-02-13T02:30:08.026Z,2.87
2023-02-13T02:32:37.901Z,2.53
2023-02-13T02:35:24.565Z,2.83
2023-02-13T02:38:02.771Z,2.30
2023-02-13T02:41:07.904Z,2.47
2023-02-13T02:43:58.967Z,2.40
2023-02-13T02:46:36.415Z,2.40
2023-02-13T02:49:33.394Z,2.07
2023-02-13T02:52:11.792Z,2.90
2023-02-13T02:55:19.496Z,2.43
2023-02-13T02:58:11.798Z,1.70
2023-02-13T03:01:01.451Z,2.10
2023-02-13T03:03:48.622Z,2.40
2023-02-13T03:06:32.991Z,2.63
2023-02-13T03:09:22.599Z,2.10
2023-02-13T03:12:12.598Z,2.10
2023-02-13T03:14:39.849Z,2.17
2023-02-13T03:17:29.279Z,2.13
2023-02-13T03:20:20.097Z,2.13
2023-02-13T03:23:15.532Z,1.90
2023-02-13T03:26:06.957Z,1.98
2023-02-13T03:29:36.727Z,2.50
2023-02-13T03:32:11.311Z,1.90
2023-02-13T03:35:02.475Z,2.20
2023-02-13T03:37:55.465Z,2.20
2023-02-13T03:41:23.175Z,1.97
2023-02-13T03:44:27.889Z,1.92
2023-02-13T03:46:59.235Z,1.92
2023-02-13T03:49:50.548Z,2.10
2023-02-13T03:52:27.627Z,1.60
2023-02-13T03:55:19.268Z,1.92
2023-02-13T03:58:06.850Z,1.90
2023-02-13T04:00:47.043Z,1.85
2023-02-13T04:03:49.117Z,1.80
2023-02-13T04:06:25.039Z,2.00
2023-02-13T04:08:52.416Z,1.80
2023-02-13T04:11:30.691Z,2.08
2023-02-13T04:14:01.607Z,2.10
2023-02-13T04:16:53.897Z,1.88
2023-02-13T04:19:22.062Z,2.15
2023-02-13T04:21:56.092Z,2.00
2023-02-13T04:24:23.377Z,1.90
2023-02-13T04:26:50.815Z,2.35
2023-02-13T04:29:18.015Z,2.20
2023-02-13T04:31:45.166Z,1.70
2023-02-13T04:34:12.357Z,1.98
2023-02-13T04:36:39.619Z,1.80
2023-02-13T04:39:06.785Z,1.48
2023-02-13T04:41:33.910Z,1.70
2023-02-13T04:44:00.961Z,1.60
2023-02-13T04:46:28.623Z,1.30
2023-02-13T04:48:55.704Z,1.70
2023-02-13T04:51:22.805Z,1.70
2023-02-13T04:53:49.872Z,1.40
2023-02-13T04:56:19.828Z,1.40
2023-02-13T04:58:49.869Z,1.60
2023-02-13T05:01:17.874Z,1.38
2023-02-13T05:03:45.122Z,1.40
2023-02-13T05:06:13.725Z,7.82
2023-02-13T05:08:41.725Z,1.60
2023-02-13T05:11:08.817Z,1.60
2023-02-13T05:13:35.963Z,1.00
2023-02-13T05:16:03.658Z,1.70
2023-02-13T05:18:31.071Z,1.30
2023-02-13T05:21:16.855Z,1.33
2023-02-13T05:23:44.068Z,1.27
2023-02-13T05:26:11.179Z,1.30
2023-02-13T05:28:59.056Z,1.47
2023-02-13T05:31:26.190Z,1.48
2023-02-13T05:33:53.302Z,2.17
2023-02-13T05:36:21.075Z,1.60
2023-02-13T05:38:49.700Z,1.73
2023-02-13T05:41:16.754Z,1.67
2023-02-13T05:43:43.821Z,1.75
2023-02-13T05:46:11.280Z,1.38
2023-02-13T05:48:40.033Z,2.08
2023-02-13T05:51:08.333Z,2.40
2023-02-13T05:53:35.631Z,1.80
2023-02-13T05:56:04.765Z,2.00
2023-02-13T05:58:32.770Z,2.20
2023-02-13T06:01:00.802Z,2.17
2023-02-13T06:03:29.977Z,1.85
2023-02-13T06:05:57.545Z,2.40
2023-02-13T06:08:25.766Z,1.58
2023-02-13T06:10:52.969Z,2.27
2023-02-13T06:13:21.184Z,2.75
2023-02-13T06:15:48.873Z,2.72
2023-02-13T06:18:15.989Z,3.10
2023-02-13T06:20:44.244Z,3.75
2023-02-13T06:23:11.432Z,2.67
2023-02-13T06:25:38.884Z,2.70
2023-02-13T06:28:06.883Z,2.50
2023-02-13T06:30:35.580Z,2.85
2023-02-13T06:33:03.264Z,3.97
2023-02-13T06:35:31.860Z,2.30
2023-02-13T06:38:00.039Z,2.30
2023-02-13T06:40:27.123Z,2.50
2023-02-13T06:42:54.817Z,1.92
2023-02-13T06:45:21.925Z,2.15
2023-02-13T06:47:49.351Z,2.47
2023-02-13T06:50:17.931Z,2.35
2023-02-13T06:52:48.059Z,1.85
2023-02-13T06:55:16.337Z,2.30
2023-02-13T06:57:45.367Z,3.00
2023-02-13T07:00:15.874Z,2.00
2023-02-13T07:02:45.469Z,2.08
2023-02-13T07:05:14.236Z,2.13
2023-02-13T07:07:42.836Z,2.83
2023-02-13T07:10:14.896Z,2.40
2023-02-13T07:12:43.703Z,2.60
2023-02-13T07:15:12.715Z,2.20
2023-02-13T07:17:40.689Z,7.28
2023-02-13T07:20:09.042Z,2.70
2023-02-13T07:22:37.087Z,2.13
2023-02-13T07:25:04.784Z,2.72
2023-02-13T07:27:32.479Z,2.78
2023-02-13T07:30:00.727Z,2.58
2023-02-13T07:32:28.355Z,2.70
2023-02-13T07:35:02.138Z,2.13
2023-02-13T07:37:33.170Z,2.13
2023-02-13T07:40:00.515Z,2.60
2023-02-13T07:42:28.348Z,2.58
2023-02-13T07:44:56.266Z,2.20
2023-02-13T07:47:24.257Z,2.67
2023-02-13T07:49:52.034Z,2.45
2023-02-13T07:52:22.268Z,2.80
2023-02-13T07:54:51.871Z,2.67
2023-02-13T07:57:19.710Z,2.30
2023-02-13T07:59:48.020Z,2.50
2023-02-13T08:02:16.714Z,2.42
2023-02-13T08:04:47.662Z,2.60
2023-02-13T08:07:17.098Z,2.55
2023-02-13T08:10:06.710Z,2.85
2023-02-13T08:12:36.105Z,2.65
2023-02-13T08:15:04.453Z,2.42
2023-02-13T08:17:32.629Z,2.40
2023-02-13T08:20:00.876Z,3.13
2023-02-13T08:22:28.508Z,2.47
2023-02-13T08:24:56.747Z,2.55
2023-02-13T08:27:24.585Z,2.60
2023-02-13T08:29:51.815Z,3.13
2023-02-13T08:32:19.602Z,3.05
2023-02-13T08:34:47.812Z,3.13
2023-02-13T08:37:15.441Z,2.78
2023-02-13T08:39:42.924Z,2.80
2023-02-13T08:42:11.159Z,2.47
2023-02-13T08:44:41.458Z,2.92
2023-02-13T08:47:09.756Z,2.60
2023-02-13T08:49:36.990Z,3.00
2023-02-13T08:52:04.792Z,3.42
2023-02-13T08:54:33.791Z,3.15
2023-02-13T08:57:00.890Z,3.03
2023-02-13T08:59:28.078Z,3.55
2023-02-13T09:01:55.323Z,3.13
2023-02-13T09:04:23.060Z,3.08
2023-02-13T09:06:50.180Z,2.85
2023-02-13T09:09:17.521Z,3.17
2023-02-13T09:11:44.672Z,3.72
2023-02-13T09:14:11.813Z,3.10
2023-02-13T09:16:38.920Z,3.60
2023-02-13T09:19:07.527Z,3.08
2023-02-13T09:21:34.919Z,3.00
2023-02-13T09:24:02.008Z,3.05
2023-02-13T09:26:29.140Z,3.40
2023-02-13T09:28:56.310Z,3.28
2023-02-13T09:31:24.439Z,2.90
2023-02-13T09:33:51.955Z,3.20
2023-02-13T09:36:24.618Z,3.58
2023-02-13T09:38:55.000Z,3.95
2023-02-13T09:41:36.210Z,3.20
2023-02-13T09:44:36.215Z,3.28
2023-02-13T09:47:10.744Z,3.40
2023-02-13T09:49:43.806Z,2.80
2023-02-13T09:52:10.988Z,3.17
2023-02-13T09:54:38.369Z,3.55
2023-02-13T09:57:45.841Z,3.78
2023-02-13T10:00:25.845Z,3.90
2023-02-13T10:02:58.489Z,3.67
2023-02-13T10:05:41.811Z,4.15
2023-02-13T10:11:03.763Z,3.67
2023-02-13T10:13:52.195Z,4.45
2023-02-13T10:16:42.392Z,4.00
2023-02-13T10:19:42.765Z,5.20
2023-02-13T10:22:33.391Z,4.40
2023-02-13T10:25:25.891Z,5.38
2023-02-13T10:28:07.634Z,3.93
2023-02-13T10:30:42.921Z,3.80
2023-02-13T10:33:22.511Z,4.50
2023-02-13T10:35:58.863Z,4.60
2023-02-13T10:38:30.773Z,4.80
2023-02-13T10:41:09.900Z,3.92
2023-02-13T10:44:15.546Z,4.47
2023-02-13T10:47:20.842Z,3.78
2023-02-13T10:50:05.574Z,3.88
2023-02-13T10:52:56.457Z,3.72
2023-02-13T10:56:05.501Z,4.00
2023-02-13T10:59:04.157Z,3.53
2023-02-13T11:01:37.291Z,4.50
2023-02-13T11:04:13.554Z,5.60
2023-02-13T11:07:02.155Z,4.22
2023-02-13T11:09:34.042Z,4.07
2023-02-13T11:12:23.866Z,4.75
2023-02-13T11:14:59.133Z,4.13
2023-02-13T11:17:30.726Z,4.82
2023-02-13T11:20:03.214Z,4.30
2023-02-13T11:22:38.208Z,4.47
2023-02-13T11:25:20.556Z,4.72
2023-02-13T11:27:51.015Z,4.75
2023-02-13T11:30:23.973Z,4.38
2023-02-13T11:35:48.169Z,3.92
2023-02-13T11:38:19.040Z,4.75
2023-02-13T11:40:52.852Z,4.82
2023-02-13T11:43:44.546Z,4.90
2023-02-13T11:46:22.276Z,4.68
2023-02-13T11:49:04.992Z,5.18
2023-02-13T11:51:59.792Z,4.10
2023-02-13T11:54:38.660Z,3.70
2023-02-13T11:57:20.803Z,4.05
2023-02-13T11:59:51.366Z,3.97
2023-02-13T12:02:30.688Z,4.07
2023-02-13T12:05:26.884Z,3.60
2023-02-13T12:08:01.954Z,4.45
2023-02-13T12:10:32.080Z,4.22
2023-02-13T12:13:14.255Z,4.22
2023-02-13T12:15:43.461Z,3.65
2023-02-13T12:18:29.228Z,3.78
2023-02-13T12:21:02.928Z,3.50
2023-02-13T12:23:48.983Z,3.42
2023-02-13T12:27:03.553Z,4.28
2023-02-13T12:30:04.178Z,4.18
2023-02-13T12:32:37.486Z,3.92
2023-02-13T12:35:22.514Z,3.90
2023-02-13T12:38:02.396Z,3.83
2023-02-13T12:40:35.524Z,3.60
2023-02-13T12:43:20.172Z,3.40
2023-02-13T12:46:07.567Z,3.72
2023-02-13T12:48:56.723Z,3.88
2023-02-13T12:51:35.100Z,2.92
2023-02-13T12:54:30.588Z,3.72
2023-02-13T12:57:19.796Z,3.20
2023-02-13T13:00:01.792Z,3.10
2023-02-13T13:03:09.453Z,3.35
2023-02-13T13:06:11.674Z,3.60
2023-02-13T13:08:57.797Z,2.95
2023-02-13T13:11:55.861Z,3.50
2023-02-13T13:14:31.301Z,3.72
2023-02-13T13:17:17.056Z,3.60
2023-02-13T13:19:57.262Z,3.25
2023-02-13T13:22:33.051Z,3.22
2023-02-13T13:25:19.100Z,3.85
2023-02-13T13:27:58.618Z,3.38
2023-02-13T13:30:35.699Z,3.33
2023-02-13T13:33:08.645Z,3.17
2023-02-13T13:35:40.053Z,3.53
2023-02-13T13:38:35.951Z,2.92
2023-02-13T13:41:19.165Z,4.30
2023-02-13T13:44:43.696Z,7.10
2023-02-13T13:47:31.875Z,2.90
2023-02-13T13:50:01.816Z,3.78
2023-02-13T13:52:35.330Z,3.38
2023-02-13T13:55:04.553Z,3.03
2023-02-13T13:57:41.261Z,3.03
2023-02-13T14:00:14.169Z,2.67
2023-02-13T14:02:50.354Z,2.90
2023-02-13T14:05:25.706Z,2.90
2023-02-13T14:07:59.467Z,2.75
2023-02-13T14:10:26.669Z,2.90
2023-02-13T14:12:56.671Z,2.42
2023-02-13T14:15:38.862Z,2.72
2023-02-13T14:18:16.176Z,2.73
2023-02-13T14:20:43.371Z,3.03
2023-02-13T14:23:32.677Z,2.40
2023-02-13T14:26:19.107Z,2.85
2023-02-13T14:28:52.460Z,2.40
2023-02-13T14:31:27.934Z,3.03
2023-02-13T14:34:05.478Z,3.10
2023-02-13T14:36:38.507Z,2.60
2023-02-13T14:41:56.821Z,2.83
2023-02-13T14:44:53.133Z,6.93
2023-02-13T14:47:30.439Z,3.30
2023-02-13T14:50:00.772Z,2.67
2023-02-13T14:52:35.619Z,3.63
2023-02-13T14:55:13.758Z,4.20
2023-02-13T14:57:47.339Z,3.05
2023-02-13T15:00:28.649Z,3.22
2023-02-13T15:03:25.415Z,3.00
2023-02-13T15:05:56.649Z,3.20
2023-02-13T15:08:30.452Z,2.65
2023-02-13T15:10:58.459Z,2.95
2023-02-13T15:13:34.920Z,3.05
2023-02-13T15:16:10.382Z,2.80
2023-02-13T15:18:49.526Z,3.03
2023-02-13T15:21:21.198Z,2.90
2023-02-13T15:23:55.758Z,3.83
2023-02-13T15:26:28.110Z,3.20
2023-02-13T15:29:09.130Z,3.60
2023-02-13T15:31:38.831Z,3.45
2023-02-13T15:34:22.396Z,3.65
2023-02-13T15:36:51.261Z,3.90
2023-02-13T15:39:24.682Z,3.80
2023-02-13T15:42:00.344Z,3.50
2023-02-13T15:44:36.482Z,3.30
2023-02-13T15:47:16.676Z,2.83
2023-02-13T15:49:46.796Z,3.50
2023-02-13T15:52:38.768Z,3.90
2023-02-13T15:55:06.846Z,3.33
2023-02-13T15:57:35.022Z,3.45
2023-02-13T16:00:04.990Z,3.53
2023-02-13T16:02:46.272Z,3.42
2023-02-13T16:05:14.950Z,3.28
2023-02-13T16:07:57.555Z,3.17
2023-02-13T16:10:36.280Z,3.30
2023-02-13T16:13:08.894Z,3.20
2023-02-13T16:15:38.023Z,3.60
2023-02-13T16:18:12.529Z,2.85
2023-02-13T16:20:39.882Z,3.70
2023-02-13T16:23:21.242Z,3.53
2023-02-13T16:25:49.139Z,3.33
2023-02-13T16:28:24.602Z,4.03
2023-02-13T16:31:01.811Z,3.13
2023-02-13T16:33:30.608Z,3.55
2023-02-13T16:36:26.370Z,3.35
2023-02-13T16:38:54.575Z,3.47
2023-02-13T16:41:40.237Z,3.50
2023-02-13T16:44:23.405Z,5.70
2023-02-13T16:47:03.142Z,3.28
2023-02-13T16:49:38.242Z,3.50
2023-02-13T16:52:16.060Z,3.53
2023-02-13T16:54:51.206Z,4.50
2023-02-13T16:57:26.783Z,3.15
2023-02-13T17:00:09.557Z,4.32
2023-02-13T17:02:40.106Z,3.42
2023-02-13T17:05:10.544Z,4.15
2023-02-13T17:07:44.029Z,3.38
2023-02-13T17:10:19.076Z,3.72
2023-02-13T17:12:48.285Z,3.70
2023-02-13T17:15:19.216Z,4.15
2023-02-13T17:17:47.047Z,3.95
2023-02-13T17:20:20.973Z,5.38
2023-02-13T17:22:51.043Z,3.70
2023-02-13T17:25:31.305Z,4.00
2023-02-13T17:28:01.308Z,3.70
2023-02-13T17:30:34.236Z,3.35
2023-02-13T17:33:07.543Z,3.67
2023-02-13T17:35:36.015Z,3.85
2023-02-13T17:38:05.366Z,4.15
2023-02-13T17:40:33.189Z,3.92
2023-02-13T17:43:01.125Z,4.10
2023-02-13T17:45:30.821Z,3.75
2023-02-13T17:47:58.612Z,3.92
2023-02-13T17:50:29.004Z,4.25
2023-02-13T17:52:57.588Z,3.90
2023-02-13T17:55:31.049Z,4.43
2023-02-13T17:57:59.725Z,4.90
2023-02-13T18:00:30.786Z,5.10
2023-02-13T18:02:59.951Z,4.18
2023-02-13T18:05:28.608Z,4.03
2023-02-13T18:07:55.857Z,4.43
2023-02-13T18:10:28.600Z,4.30
2023-02-13T18:13:04.026Z,4.95
2023-02-13T18:15:39.422Z,4.25
2023-02-13T18:18:07.370Z,5.28
2023-02-13T18:20:35.783Z,4.80
2023-02-13T18:23:03.612Z,5.32
2023-02-13T18:25:31.192Z,4.80
2023-02-13T18:27:58.934Z,4.53
2023-02-13T18:30:27.027Z,4.65
2023-02-13T18:32:56.748Z,4.57
2023-02-13T18:35:24.314Z,4.47
2023-02-13T18:37:52.148Z,4.35
2023-02-13T18:40:20.595Z,4.05
2023-02-13T18:42:49.668Z,4.25
2023-02-13T18:45:18.152Z,4.55
2023-02-13T18:47:45.503Z,4.75
2023-02-13T18:50:14.411Z,4.72
2023-02-13T18:52:42.141Z,4.97
2023-02-13T18:55:09.887Z,4.63
2023-02-13T18:57:37.005Z,4.88
2023-02-13T19:00:06.480Z,4.53
2023-02-13T19:02:33.785Z,4.95
2023-02-13T19:05:01.657Z,4.50
2023-02-13T19:07:29.177Z,4.50
2023-02-13T19:09:56.519Z,4.43
2023-02-13T19:12:24.857Z,4.68
2023-02-13T19:14:51.957Z,4.47
2023-02-13T19:17:19.140Z,5.15
2023-02-13T19:19:49.009Z,4.60
2023-02-13T19:22:16.308Z,4.57
2023-02-13T19:24:43.602Z,4.07
2023-02-13T19:27:11.585Z,4.00
2023-02-13T19:29:44.974Z,4.40
2023-02-13T19:32:12.192Z,3.42
2023-02-13T19:34:39.960Z,4.10
2023-02-13T19:37:07.429Z,2.95
2023-02-13T19:39:34.653Z,2.90
2023-02-13T19:42:01.941Z,2.95
2023-02-13T19:44:29.543Z,3.15
2023-02-13T19:46:57.649Z,2.75
2023-02-13T19:49:24.829Z,2.97
2023-02-13T19:51:52.069Z,3.03
2023-02-13T19:54:20.218Z,3.60
2023-02-13T19:56:47.761Z,2.35
2023-02-13T19:59:14.968Z,2.80
2023-02-13T20:01:45.851Z,2.20
2023-02-13T20:04:13.097Z,2.40
2023-02-13T20:06:40.466Z,2.67
2023-02-13T20:09:11.471Z,2.28
2023-02-13T20:11:40.694Z,1.90
2023-02-13T20:14:11.745Z,2.15
2023-02-13T20:16:39.536Z,1.90
2023-02-13T20:19:09.669Z,1.80
2023-02-13T20:21:37.010Z,1.77
2023-02-13T20:24:05.561Z,1.60
2023-02-13T20:26:32.866Z,1.60
2023-02-13T20:29:01.053Z,1.50
2023-02-13T20:31:29.985Z,1.45
2023-02-13T20:33:58.730Z,1.45
2023-02-13T20:36:31.821Z,1.90
2023-02-13T20:41:32.843Z,1.75
2023-02-13T20:44:02.594Z,1.45
2023-02-13T20:46:35.271Z,1.50
2023-02-13T20:49:02.343Z,1.60
2023-02-13T20:51:29.791Z,1.50
2023-02-13T20:53:57.193Z,2.00
2023-02-13T20:56:25.681Z,1.77
2023-02-13T20:58:56.802Z,1.40
2023-02-13T21:01:29.875Z,1.60
2023-02-13T21:03:57.743Z,1.45
2023-02-13T21:06:36.165Z,1.83
2023-02-13T21:09:05.347Z,1.90
2023-02-13T21:11:34.525Z,1.60
2023-02-13T21:14:02.484Z,1.50
2023-02-13T21:16:35.081Z,1.40
2023-02-13T21:19:06.232Z,1.60
2023-02-13T21:21:35.939Z,1.20
2023-02-13T21:24:08.327Z,1.48
2023-02-13T21:26:37.384Z,1.40
2023-02-13T21:29:06.197Z,1.35
2023-02-13T21:31:44.274Z,1.60
2023-02-13T21:34:12.656Z,2.17
2023-02-13T21:36:40.757Z,1.50
2023-02-13T21:39:10.178Z,1.75
2023-02-13T21:41:40.449Z,1.40
2023-02-13T21:44:08.412Z,1.75
2023-02-13T21:46:36.151Z,1.20
2023-02-13T21:49:05.867Z,1.58
2023-02-13T21:51:35.731Z,1.63
2023-02-13T21:54:05.156Z,1.58
2023-02-13T21:56:37.292Z,1.58
2023-02-13T21:59:05.294Z,1.40
2023-02-13T22:01:35.986Z,1.70
2023-02-13T22:04:07.377Z,1.67
2023-02-13T22:06:37.681Z,1.60
2023-02-13T22:09:16.050Z,1.60
2023-02-13T22:11:43.351Z,1.40
2023-02-13T22:14:17.273Z,2.00
2023-02-13T22:16:45.988Z,1.63
2023-02-13T22:19:14.901Z,1.70
2023-02-13T22:21:42.361Z,1.73
2023-02-13T22:24:10.059Z,1.80
2023-02-13T22:26:40.595Z,1.67
2023-02-13T22:29:10.036Z,1.50
2023-02-13T22:31:37.954Z,1.75
2023-02-13T22:34:05.939Z,1.70
2023-02-13T22:36:35.683Z,1.73
2023-02-13T22:39:02.763Z,1.88
2023-02-13T22:41:30.292Z,1.80
2023-02-13T22:43:57.511Z,2.13
2023-02-13T22:46:30.784Z,1.58
2023-02-13T22:48:59.210Z,2.00
2023-02-13T22:51:35.361Z,1.95
2023-02-13T22:54:03.540Z,2.30
2023-02-13T22:56:32.356Z,2.35
2023-02-13T22:58:59.859Z,1.85
2023-02-13T23:01:28.802Z,1.70
2023-02-13T23:03:57.008Z,1.65
2023-02-13T23:06:24.754Z,1.95
2023-02-13T23:08:55.118Z,1.92
2023-02-13T23:11:46.005Z,1.75
2023-02-13T23:14:13.588Z,1.50
2023-02-13T23:17:00.540Z,1.55
2023-02-13T23:19:29.965Z,1.45
2023-02-13T23:21:57.553Z,1.45
2023-02-13T23:24:25.187Z,1.80
2023-02-13T23:26:52.579Z,1.95
2023-02-13T23:29:20.325Z,1.70
2023-02-13T23:31:47.760Z,1.70
2023-02-13T23:34:15.076Z,1.20
2023-02-13T23:36:42.348Z,1.40
2023-02-13T23:39:09.485Z,1.33
2023-02-13T23:41:36.582Z,1.08
2023-02-13T23:44:04.087Z,1.33
2023-02-13T23:46:32.387Z,1.27
2023-02-13T23:48:59.768Z,1.50
2023-02-13T23:51:26.899Z,1.60
2023-02-13T23:53:56.725Z,1.38
2023-02-13T23:56:25.018Z,1.33
2023-02-13T23:58:52.670Z,1.27
